Time;durP1;ratioP1;P1;durP2;ratioP2;P2;SDS_P1;SDS_P2;PMS_P1;PMS_P2;Temp;Humidity;BMP_temperature;BMP_pressure;BME280_temperature;BME280_humidity;BME280_pressure;Samples;Min_cycle;Max_cycle;Signal;HPM_P1;HPM_P2
2021/11/18 00:02:20;;;;;;;;;17.50;14.25;;;;;12.71;63.82;102534.75;5099904;27;45896;-70
2021/11/18 00:04:45;;;;;;;;;17.50;14.50;;;;;12.81;63.82;102548.00;5100150;27;45430;-70
2021/11/18 00:07:11;;;;;;;;;17.50;16.50;;;;;12.70;63.91;102529.41;5099942;27;45315;-70
2021/11/18 00:09:36;;;;;;;;;18.50;15.75;;;;;12.78;63.99;102549.81;5098500;27;45583;-70
2021/11/18 00:12:02;;;;;;;;;24.25;22.00;;;;;12.74;64.06;102548.06;5099832;27;45450;-70
2021/11/18 00:14:28;;;;;;;;;36.50;30.50;;;;;12.57;63.98;102513.44;5089667;27;45262;-70
2021/11/18 00:16:53;;;;;;;;;19.25;18.75;;;;;12.72;63.91;102540.97;5097175;27;45456;-70
2021/11/18 00:19:18;;;;;;;;;19.50;18.00;;;;;12.76;64.00;102537.31;5099785;27;46493;-70
2021/11/18 00:21:44;;;;;;;;;17.00;14.00;;;;;12.72;63.91;102538.28;5087336;27;45358;-70
2021/11/18 00:24:12;;;;;;;;;21.25;18.50;;;;;12.75;63.94;102557.00;5099982;27;45379;-70
2021/11/18 00:26:38;;;;;;;;;16.50;16.50;;;;;12.69;64.08;102543.69;5099485;27;45213;-70
2021/11/18 00:29:07;;;;;;;;;18.75;15.25;;;;;12.67;63.94;102537.47;5099865;27;46306;-70
2021/11/18 00:31:36;;;;;;;;;14.75;14.75;;;;;12.67;64.00;102546.38;5099754;27;45520;-70
2021/11/18 00:34:03;;;;;;;;;18.50;15.25;;;;;12.65;64.19;102537.47;5098404;27;45275;-70
2021/11/18 00:36:29;;;;;;;;;13.00;12.25;;;;;12.64;64.23;102540.19;5099574;27;45562;-70
2021/11/18 00:38:55;;;;;;;;;13.75;13.75;;;;;12.60;64.09;102521.47;5099682;27;46323;-70
2021/11/18 00:41:21;;;;;;;;;16.75;15.25;;;;;12.65;64.01;102524.09;5098860;27;45551;-69
2021/11/18 00:43:48;;;;;;;;;16.00;15.00;;;;;12.66;64.11;102528.50;5102977;27;45391;-70
2021/11/18 00:46:14;;;;;;;;;13.75;12.50;;;;;12.62;64.03;102521.44;5102735;27;45512;-70
2021/11/18 00:48:40;;;;;;;;;14.00;11.75;;;;;12.64;64.01;102513.38;5100507;27;46598;-70
2021/11/18 00:51:13;;;;;;;;;15.25;12.50;;;;;12.62;64.01;102517.88;5102655;27;45281;-70
2021/11/18 00:53:45;;;;;;;;;14.50;12.50;;;;;12.62;63.93;102510.72;5103155;27;45469;-70
2021/11/18 00:56:11;;;;;;;;;15.50;12.75;;;;;12.51;63.84;102494.81;5102940;27;45458;-70
2021/11/18 00:58:37;;;;;;;;;12.25;12.25;;;;;12.49;64.03;102496.59;5101600;27;47318;-70
2021/11/18 01:01:03;;;;;;;;;13.00;10.25;;;;;12.53;63.91;102517.09;5102968;27;45580;-70
2021/11/18 01:03:31;;;;;;;;;13.25;12.50;;;;;12.54;63.92;102521.53;5101541;27;45420;-70
2021/11/18 01:05:57;;;;;;;;;14.75;11.75;;;;;12.45;63.99;102505.59;5103143;27;45206;-70
2021/11/18 01:08:23;;;;;;;;;10.00;7.75;;;;;12.45;64.26;102504.69;5102716;27;45247;-70
2021/11/18 01:10:51;;;;;;;;;13.75;11.00;;;;;12.50;64.14;102519.81;5102277;27;45156;-70
2021/11/18 01:13:17;;;;;;;;;16.00;13.75;;;;;12.49;64.01;102519.81;5102288;27;45570;-70
2021/11/18 01:15:47;;;;;;;;;15.25;14.25;;;;;12.46;64.15;102517.16;5089418;27;45372;-70
2021/11/18 01:18:14;;;;;;;;;10.25;10.00;;;;;12.41;64.14;102520.81;5102373;27;45487;-70
2021/11/18 01:20:41;;;;;;;;;15.00;11.75;;;;;12.41;63.86;102526.16;5101127;27;45490;-70
2021/11/18 01:23:11;;;;;;;;;12.00;9.00;;;;;12.36;63.65;102521.75;5102406;27;45341;-70
2021/11/18 01:25:37;;;;;;;;;11.00;9.50;;;;;12.37;64.09;102531.56;5102566;27;45291;-70
2021/11/18 01:28:09;;;;;;;;;12.50;9.50;;;;;12.36;64.05;102536.03;5102149;27;46330;-70
2021/11/18 01:30:35;;;;;;;;;15.50;13.25;;;;;12.31;64.12;102529.84;5102444;27;45471;-70
2021/11/18 01:33:03;;;;;;;;;10.75;9.75;;;;;12.34;64.14;102536.94;5102131;27;45316;-70
2021/11/18 01:35:29;;;;;;;;;9.50;9.50;;;;;12.34;64.01;102537.81;5102519;27;45320;-70
2021/11/18 01:37:54;;;;;;;;;12.00;10.75;;;;;12.30;64.14;102520.03;5102216;27;45286;-70
2021/11/18 01:40:24;;;;;;;;;11.25;10.50;;;;;12.36;64.21;102538.72;5101776;27;46778;-70
2021/11/18 01:42:52;;;;;;;;;8.75;8.00;;;;;12.36;64.16;102541.41;5100678;27;45330;-70
2021/11/18 01:45:18;;;;;;;;;10.75;9.25;;;;;12.36;64.20;102548.53;5102379;27;45484;-70
2021/11/18 01:47:46;;;;;;;;;14.50;11.00;;;;;12.33;63.87;102552.13;5101727;27;45286;-70
2021/11/18 01:50:15;;;;;;;;;18.00;14.25;;;;;12.30;64.17;102548.59;5098141;27;45502;-70
2021/11/18 01:52:42;;;;;;;;;9.50;9.50;;;;;12.29;63.93;102553.06;5102113;27;45269;-70
2021/11/18 01:55:08;;;;;;;;;15.50;11.75;;;;;12.21;63.89;102547.81;5100796;27;45309;-70
2021/11/18 01:57:36;;;;;;;;;13.50;8.75;;;;;12.25;64.22;102561.16;5100425;27;47202;-70
2021/11/18 02:00:09;;;;;;;;;13.75;12.00;;;;;12.22;64.09;102564.75;5100485;27;45915;-70
2021/11/18 02:02:35;;;;;;;;;15.75;13.50;;;;;12.20;64.24;102567.44;5088696;27;45193;-70
2021/11/18 02:05:23;;;;;;;;;15.75;13.25;;;;;12.17;63.96;102567.47;5101628;27;45402;-70
2021/11/18 02:07:50;;;;;;;;;14.25;13.25;;;;;12.09;64.07;102555.94;5101812;27;45355;-70
2021/11/18 02:10:28;;;;;;;;;15.25;13.75;;;;;12.08;64.26;102558.63;5100764;27;45172;-70
2021/11/18 02:12:55;;;;;;;;;12.50;11.50;;;;;11.96;64.10;102539.13;5100320;27;45297;-70
2021/11/18 02:15:36;;;;;;;;;15.00;11.50;;;;;12.08;64.13;102554.19;5087548;27;45338;-70
2021/11/18 02:18:10;;;;;;;;;13.50;12.00;;;;;12.07;64.14;102562.22;5101477;27;45187;-70
2021/11/18 02:20:35;;;;;;;;;15.00;13.25;;;;;12.03;64.19;102564.94;5088274;27;45485;-70
2021/11/18 02:23:08;;;;;;;;;17.00;12.50;;;;;11.94;64.19;102550.72;5101750;27;45443;-70
2021/11/18 02:25:33;;;;;;;;;15.25;12.25;;;;;11.98;64.02;102564.09;5101766;27;45360;-71
2021/11/18 02:27:59;;;;;;;;;15.50;14.00;;;;;11.89;64.18;102542.72;5100019;27;46897;-70
2021/11/18 02:30:27;;;;;;;;;12.75;9.75;;;;;11.96;64.35;102560.53;5101428;27;45300;-70
2021/11/18 02:32:55;;;;;;;;;14.00;13.25;;;;;11.93;64.08;102557.88;5100323;27;45381;-70
2021/11/18 02:35:27;;;;;;;;;18.00;13.00;;;;;11.95;64.32;102563.22;5101373;27;45474;-70
2021/11/18 02:37:55;;;;;;;;;15.75;14.25;;;;;11.93;64.30;102562.31;5100865;27;46233;-70
2021/11/18 02:40:22;;;;;;;;;12.75;12.75;;;;;11.84;64.33;102553.47;5100797;27;45276;-70
2021/11/18 02:42:49;;;;;;;;;15.00;14.25;;;;;11.89;64.48;102569.47;5101201;27;45369;-70
2021/11/18 02:45:18;;;;;;;;;16.50;13.00;;;;;11.82;64.24;102557.94;5101410;27;45314;-70
2021/11/18 02:47:44;;;;;;;;;16.25;12.00;;;;;11.85;64.24;102565.06;5100975;27;45221;-70
2021/11/18 02:50:13;;;;;;;;;11.00;9.75;;;;;11.81;64.03;102558.84;5100414;27;45427;-70
2021/11/18 02:52:39;;;;;;;;;13.75;13.00;;;;;11.76;64.25;102554.41;5101145;27;45506;-70
2021/11/18 02:55:16;;;;;;;;;14.25;11.25;;;;;11.75;64.21;102553.53;5101132;27;45325;-70
2021/11/18 02:57:42;;;;;;;;;16.75;16.75;;;;;11.71;64.29;102557.16;5087825;27;45296;-70
2021/11/18 03:00:14;;;;;;;;;12.00;11.00;;;;;11.73;64.49;102554.44;5100809;27;45309;-70
2021/11/18 03:02:40;;;;;;;;;12.25;12.00;;;;;11.74;64.55;102572.28;5100024;27;45234;-70
2021/11/18 03:05:08;;;;;;;;;14.75;12.00;;;;;11.74;64.30;102582.97;5100188;27;45313;-70
2021/11/18 03:07:34;;;;;;;;;13.75;13.75;;;;;11.70;64.38;102578.56;5100647;27;46279;-70
2021/11/18 03:10:00;;;;;;;;;13.25;12.00;;;;;11.71;64.21;102578.56;5100528;27;45179;-70
2021/11/18 03:12:25;;;;;;;;;11.75;11.50;;;;;11.71;64.34;102567.84;5101147;27;45454;-70
2021/11/18 03:14:51;;;;;;;;;16.25;15.75;;;;;11.72;64.17;102595.50;5086554;27;45525;-70
2021/11/18 03:17:16;;;;;;;;;12.75;12.75;;;;;11.70;64.17;102590.16;5087405;27;45710;-70
2021/11/18 03:19:42;;;;;;;;;15.50;12.75;;;;;11.70;64.52;102589.28;5100320;27;45312;-70
2021/11/18 03:22:07;;;;;;;;;13.00;12.00;;;;;11.67;64.39;102590.16;5088568;27;45549;-70
2021/11/18 03:24:32;;;;;;;;;11.50;11.00;;;;;11.64;64.34;102587.50;5100542;27;45326;-70
2021/11/18 03:26:58;;;;;;;;;15.75;12.25;;;;;11.63;64.35;102591.09;5100530;27;45398;-70
2021/11/18 03:29:23;;;;;;;;;11.00;11.00;;;;;11.61;64.10;102584.84;5100676;27;45375;-70
2021/11/18 03:31:50;;;;;;;;;7.25;6.25;;;;;11.60;64.53;102585.75;5100757;27;45325;-70
2021/11/18 03:34:22;;;;;;;;;10.75;10.00;;;;;11.52;64.17;102567.09;5100317;27;45417;-70
2021/11/18 03:36:47;;;;;;;;;11.25;11.25;;;;;11.59;64.12;102583.97;5100063;27;47119;-70
2021/11/18 03:39:13;;;;;;;;;14.00;12.00;;;;;11.57;64.49;102591.13;5100213;27;45507;-70
2021/11/18 03:41:41;;;;;;;;;12.25;12.25;;;;;11.42;64.38;102568.06;5100383;27;45416;-69
2021/11/18 03:44:09;;;;;;;;;12.00;10.25;;;;;11.55;64.50;102592.94;5100350;27;45178;-70
2021/11/18 03:46:41;;;;;;;;;14.75;11.75;;;;;11.54;64.41;102593.81;5100211;27;47207;-70
2021/11/18 03:49:09;;;;;;;;;11.25;9.50;;;;;11.50;64.45;102585.81;5097116;27;45467;-70
2021/11/18 03:51:35;;;;;;;;;11.50;10.75;;;;;11.49;64.45;102580.47;5100333;27;45269;-70
2021/11/18 03:54:06;;;;;;;;;14.50;11.25;;;;;11.51;64.30;102586.72;5100051;27;45451;-69
2021/11/18 03:56:38;;;;;;;;;13.00;11.75;;;;;11.38;64.24;102555.63;5099730;27;46050;-70
2021/11/18 03:59:12;;;;;;;;;13.00;11.00;;;;;11.38;64.11;102569.00;5100138;27;45381;-70
2021/11/18 04:01:38;;;;;;;;;12.00;11.00;;;;;11.48;64.27;102592.97;5100379;27;45343;-69
2021/11/18 04:04:09;;;;;;;;;15.00;13.00;;;;;11.46;64.53;102597.44;5100040;27;45320;-69
2021/11/18 04:06:38;;;;;;;;;15.25;12.50;;;;;11.38;64.47;102587.72;5098544;27;47869;-70
2021/11/18 04:09:04;;;;;;;;;13.00;12.00;;;;;11.44;64.12;102601.00;5100289;27;45718;-70
2021/11/18 04:11:30;;;;;;;;;17.75;14.25;;;;;11.33;64.58;102579.72;5099969;27;45247;-70
2021/11/18 04:13:56;;;;;;;;;16.00;14.25;;;;;11.34;64.57;102585.94;5094119;27;45246;-70
2021/11/18 04:16:22;;;;;;;;;14.50;13.50;;;;;11.40;64.03;102600.16;5092792;27;46273;-70
2021/11/18 04:18:47;;;;;;;;;16.75;13.00;;;;;11.34;64.32;102594.81;5102790;27;45207;-70
2021/11/18 04:21:13;;;;;;;;;13.75;13.00;;;;;11.33;64.23;102606.44;5091960;27;45292;-70
2021/11/18 04:23:38;;;;;;;;;13.00;11.50;;;;;11.34;64.20;102616.22;5102315;27;45532;-69
2021/11/18 04:26:04;;;;;;;;;12.75;12.50;;;;;11.34;64.21;102612.66;5102890;27;45957;-69
2021/11/18 04:28:30;;;;;;;;;13.00;12.25;;;;;11.25;63.91;102603.81;5103064;27;45214;-69
2021/11/18 04:31:02;;;;;;;;;9.75;8.00;;;;;11.34;64.56;102626.91;5102202;27;45345;-70
2021/11/18 04:33:29;;;;;;;;;13.00;11.75;;;;;11.25;64.54;102610.94;5089929;27;45418;-70
2021/11/18 04:35:56;;;;;;;;;10.00;9.00;;;;;11.26;64.41;102618.03;5092571;27;45708;-69
2021/11/18 04:38:22;;;;;;;;;9.00;9.00;;;;;11.25;64.75;102616.28;5103313;27;45576;-69
2021/11/18 04:40:47;;;;;;;;;10.50;10.00;;;;;11.28;64.42;102627.84;5102964;27;45206;-69
2021/11/18 04:43:13;;;;;;;;;9.50;8.50;;;;;11.23;64.70;102618.97;5103237;27;45555;-70
2021/11/18 04:45:39;;;;;;;;;10.75;9.50;;;;;11.26;65.05;102620.72;5103068;27;45648;-70
2021/11/18 04:48:05;;;;;;;;;13.50;9.50;;;;;11.19;65.04;102616.31;5101603;27;45334;-70
2021/11/18 04:50:32;;;;;;;;;14.75;12.25;;;;;11.33;64.74;102641.19;5101951;27;45419;-70
2021/11/18 04:52:58;;;;;;;;;17.50;13.00;;;;;11.31;64.46;102649.22;5101670;27;45814;-70
2021/11/18 04:55:26;;;;;;;;;9.50;9.50;;;;;11.29;64.44;102644.75;5101428;27;47022;-70
2021/11/18 04:57:52;;;;;;;;;16.50;13.00;;;;;11.30;64.65;102651.91;5101295;27;45470;-70
2021/11/18 05:00:26;;;;;;;;;14.00;12.50;;;;;11.30;64.46;102657.25;5102969;27;45322;-70
2021/11/18 05:02:52;;;;;;;;;14.25;10.00;;;;;11.25;64.60;102659.06;5102743;27;45313;-70
2021/11/18 05:05:20;;;;;;;;;17.25;13.50;;;;;11.26;64.53;102658.16;5102629;27;46469;-69
2021/11/18 05:07:46;;;;;;;;;14.00;13.75;;;;;11.15;64.69;102641.28;5102909;27;45431;-70
2021/11/18 05:10:13;;;;;;;;;14.50;12.00;;;;;11.23;64.20;102655.50;5102608;27;45677;-70
2021/11/18 05:12:40;;;;;;;;;11.25;11.25;;;;;11.19;64.36;102649.25;5102842;27;45531;-70
2021/11/18 05:15:08;;;;;;;;;13.00;13.00;;;;;11.15;64.31;102647.50;5088550;27;46071;-69
2021/11/18 05:17:34;;;;;;;;;12.25;10.50;;;;;11.18;64.82;102652.84;5102854;27;45369;-70
2021/11/18 05:20:00;;;;;;;;;14.50;12.50;;;;;11.17;64.49;102653.72;5099662;27;45432;-70
2021/11/18 05:22:25;;;;;;;;;20.00;13.50;;;;;11.16;64.32;102651.97;5091412;27;45418;-70
2021/11/18 05:24:52;;;;;;;;;12.75;11.50;;;;;11.12;64.10;102644.84;5102386;27;45195;-70
2021/11/18 05:27:20;;;;;;;;;13.00;13.00;;;;;11.12;64.19;102648.41;5101896;27;45244;-70
2021/11/18 05:29:45;;;;;;;;;14.75;12.50;;;;;11.04;64.22;102636.88;5100655;27;45461;-69
2021/11/18 05:32:11;;;;;;;;;14.50;13.00;;;;;11.09;64.49;102650.19;5101054;27;45415;-69
2021/11/18 05:34:39;;;;;;;;;15.50;14.75;;;;;11.06;64.64;102653.78;5102073;27;45982;-69
2021/11/18 05:37:04;;;;;;;;;13.75;13.00;;;;;11.07;64.34;102655.56;5092877;27;45482;-70
2021/11/18 05:39:30;;;;;;;;;13.75;12.75;;;;;11.00;64.06;102643.13;5102341;27;45652;-69
2021/11/18 05:41:55;;;;;;;;;20.25;17.50;;;;;11.05;64.42;102659.16;5101992;27;45540;-69
2021/11/18 05:44:21;;;;;;;;;20.50;17.25;;;;;11.00;64.52;102659.16;5101981;27;46112;-70
2021/11/18 05:46:46;;;;;;;;;15.25;14.50;;;;;11.04;64.31;102673.38;5102222;27;45373;-70
2021/11/18 05:49:11;;;;;;;;;18.50;18.50;;;;;10.92;64.47;102652.94;5100958;27;45386;-69
2021/11/18 05:51:37;;;;;;;;;19.50;17.00;;;;;10.99;64.72;102662.69;5102011;27;45335;-70
2021/11/18 05:54:07;;;;;;;;;21.25;18.00;;;;;10.97;64.37;102664.50;5100541;27;47259;-70
2021/11/18 05:56:34;;;;;;;;;18.00;17.50;;;;;11.00;64.71;102675.19;5101593;27;45278;-69
2021/11/18 05:59:00;;;;;;;;;19.25;16.75;;;;;11.00;64.72;102675.19;5101761;27;45321;-70
2021/11/18 06:01:29;;;;;;;;;22.25;18.00;;;;;11.00;64.44;102677.84;5100603;27;46378;-70
2021/11/18 06:03:55;;;;;;;;;22.00;17.00;;;;;10.93;64.52;102676.09;5101470;27;45920;-70
2021/11/18 06:06:21;;;;;;;;;17.50;14.50;;;;;10.98;64.84;102692.13;5101285;27;45344;-72
2021/11/18 06:08:47;;;;;;;;;22.00;18.50;;;;;10.96;64.63;102694.81;5100026;27;45447;-72
2021/11/18 06:11:14;;;;;;;;;19.50;17.00;;;;;10.86;64.52;102675.25;5101588;27;45372;-72
2021/11/18 06:13:40;;;;;;;;;18.25;16.50;;;;;10.92;64.16;102685.00;5099007;27;47050;-72
2021/11/18 06:16:06;;;;;;;;;20.50;18.00;;;;;10.78;64.79;102665.47;5097688;27;45582;-72
2021/11/18 06:18:32;;;;;;;;;26.00;18.00;;;;;10.89;64.70;102687.69;5101476;27;45224;-71
2021/11/18 06:20:57;;;;;;;;;24.50;22.50;;;;;10.78;64.65;102670.81;5092134;27;45269;-71
2021/11/18 06:23:24;;;;;;;;;24.75;20.50;;;;;10.47;64.42;102630.78;5114604;27;48182;-71
2021/11/18 06:25:50;;;;;;;;;25.25;23.75;;;;;10.74;64.94;102668.16;5100880;27;45226;-72
2021/11/18 06:28:15;;;;;;;;;23.00;18.75;;;;;10.67;64.79;102647.66;5101341;27;45356;-71
2021/11/18 06:30:50;;;;;;;;;23.75;19.25;;;;;10.84;64.45;102684.13;5101463;27;45375;-71
2021/11/18 06:33:18;;;;;;;;;20.50;17.75;;;;;10.83;64.45;102685.03;5099551;27;48145;-71
2021/11/18 06:35:44;;;;;;;;;30.00;18.00;;;;;10.72;64.45;102675.25;5093191;27;45653;-71
2021/11/18 06:38:09;;;;;;;;;18.50;17.75;;;;;10.56;64.46;102658.38;5098672;27;45509;-72
2021/11/18 06:40:35;;;;;;;;;17.25;17.25;;;;;10.66;64.72;102682.38;5099024;27;45871;-72
2021/11/18 06:43:02;;;;;;;;;19.25;17.25;;;;;10.66;64.58;102677.03;5099662;27;47164;-72
2021/11/18 06:45:30;;;;;;;;;18.75;18.75;;;;;10.73;64.90;102701.06;5099687;27;45573;-71
2021/11/18 06:47:56;;;;;;;;;25.00;19.75;;;;;10.76;64.54;102705.53;5100305;27;45420;-70
2021/11/18 06:50:21;;;;;;;;;18.50;17.00;;;;;10.73;64.35;102702.88;5099297;27;45455;-71
2021/11/18 06:52:47;;;;;;;;;20.75;18.00;;;;;10.76;64.75;102705.53;5095394;27;46177;-71
2021/11/18 06:55:16;;;;;;;;;19.50;19.50;;;;;10.73;64.80;102705.53;5098743;27;45463;-71
2021/11/18 06:57:42;;;;;;;;;23.00;20.25;;;;;10.75;64.53;102711.75;5098445;27;45445;-73
2021/11/18 07:00:10;;;;;;;;;21.25;20.25;;;;;10.65;64.68;102694.84;5099619;27;45610;-71
2021/11/18 07:02:35;;;;;;;;;25.50;21.00;;;;;10.69;64.62;102699.31;5099315;27;45593;-70
2021/11/18 07:05:00;;;;;;;;;28.00;25.00;;;;;10.78;65.01;102716.22;5099438;27;45332;-65
2021/11/18 07:07:26;;;;;;;;;33.75;26.50;;;;;10.78;64.89;102717.09;5099524;27;45387;-65
2021/11/18 07:09:51;;;;;;;;;26.00;25.50;;;;;10.78;64.39;102722.44;5099346;27;45303;-64
2021/11/18 07:12:19;;;;;;;;;27.25;24.75;;;;;10.79;64.51;102723.31;5099201;27;45975;-64
2021/11/18 07:14:45;;;;;;;;;30.75;27.75;;;;;10.78;64.71;102726.91;5099289;27;45525;-64
2021/11/18 07:17:11;;;;;;;;;36.25;34.00;;;;;10.76;64.78;102724.25;5099406;27;45384;-64
2021/11/18 07:19:37;;;;;;;;;34.50;29.25;;;;;10.75;64.93;102725.13;5099130;27;45252;-64
2021/11/18 07:22:03;;;;;;;;;24.75;21.00;;;;;10.77;64.44;102723.31;5099149;27;46428;-63
2021/11/18 07:24:29;;;;;;;;;23.75;21.00;;;;;10.72;64.51;102712.63;5099360;27;45707;-64
2021/11/18 07:26:54;;;;;;;;;21.75;19.25;;;;;10.70;64.80;102714.44;5098648;27;45379;-64
2021/11/18 07:29:22;;;;;;;;;20.00;17.25;;;;;10.74;64.18;102718.91;5098804;27;45517;-64
2021/11/18 07:31:48;;;;;;;;;24.00;20.50;;;;;10.77;64.38;102728.66;5099864;27;45443;-63
2021/11/18 07:34:14;;;;;;;;;20.50;19.50;;;;;10.77;64.42;102722.44;5100323;27;45362;-63
2021/11/18 07:36:39;;;;;;;;;25.50;21.50;;;;;10.75;64.98;102734.00;5098929;27;45374;-63
2021/11/18 07:39:05;;;;;;;;;20.50;18.25;;;;;10.74;64.44;102736.69;5097581;27;45536;-63
2021/11/18 07:41:31;;;;;;;;;19.25;18.50;;;;;10.75;64.45;102723.31;5099892;27;45383;-63
2021/11/18 07:43:56;;;;;;;;;20.75;19.25;;;;;10.69;64.58;102725.13;5100578;27;45213;-63
2021/11/18 07:46:22;;;;;;;;;20.25;18.25;;;;;10.70;64.61;102717.09;5093399;27;45401;-63
2021/11/18 07:48:49;;;;;;;;;22.25;21.00;;;;;10.73;64.59;102725.13;5091931;27;45567;-64
2021/11/18 07:51:18;;;;;;;;;19.50;19.00;;;;;10.68;64.40;102721.56;5098601;27;46325;-62
2021/11/18 07:53:44;;;;;;;;;24.00;19.75;;;;;10.63;64.43;102710.00;5103179;27;45631;-62
2021/11/18 07:56:12;;;;;;;;;20.00;17.75;;;;;10.67;64.42;102727.78;5103898;27;45400;-71
2021/11/18 07:58:38;;;;;;;;;26.25;22.25;;;;;10.60;64.44;102723.34;5103679;27;45235;-71
2021/11/18 08:01:04;;;;;;;;;25.25;21.75;;;;;10.59;64.85;102720.69;5102515;27;45289;-71
2021/11/18 08:03:30;;;;;;;;;24.75;22.25;;;;;10.57;64.64;102729.59;5099500;27;45213;-71
2021/11/18 08:05:57;;;;;;;;;21.00;19.75;;;;;10.53;64.05;102734.94;5089820;27;45455;-70
2021/11/18 08:08:23;;;;;;;;;27.25;25.00;;;;;10.49;64.47;102725.13;5100922;27;45389;-70
2021/11/18 08:10:48;;;;;;;;;21.00;20.50;;;;;10.46;64.44;102725.16;5103016;27;46271;-70
2021/11/18 08:13:14;;;;;;;;;24.75;23.50;;;;;10.48;64.69;102736.72;5099947;27;45389;-70
2021/11/18 08:15:39;;;;;;;;;28.25;25.25;;;;;10.53;64.45;102748.28;5091807;27;46067;-70
2021/11/18 08:18:05;;;;;;;;;36.25;34.00;;;;;10.48;64.96;102737.59;5103079;27;45480;-70
2021/11/18 08:20:31;;;;;;;;;32.25;30.00;;;;;10.56;64.50;102734.94;5101691;27;45577;-70
2021/11/18 08:22:57;;;;;;;;;30.50;27.50;;;;;10.64;64.58;102756.28;5101107;27;45710;-70
2021/11/18 08:25:25;;;;;;;;;31.25;29.00;;;;;10.59;64.61;102744.72;5103102;27;45414;-70
2021/11/18 08:27:51;;;;;;;;;31.50;29.25;;;;;10.59;64.58;102753.59;5103081;27;45673;-70
2021/11/18 08:30:20;;;;;;;;;30.50;28.00;;;;;10.66;64.64;102760.75;5102440;27;45415;-71
2021/11/18 08:32:49;;;;;;;;;33.00;30.50;;;;;10.66;64.54;102759.84;5103625;27;46298;-70
2021/11/18 08:35:16;;;;;;;;;31.00;25.00;;;;;10.63;64.36;102752.72;5103139;27;45315;-70
2021/11/18 08:37:42;;;;;;;;;31.25;29.00;;;;;10.40;64.71;102725.16;5102742;27;45474;-70
2021/11/18 08:40:09;;;;;;;;;27.50;24.25;;;;;10.57;64.40;102748.28;5102751;27;45392;-70
2021/11/18 08:42:35;;;;;;;;;30.75;28.75;;;;;10.63;64.59;102767.88;5102462;27;45368;-70
2021/11/18 08:45:01;;;;;;;;;26.25;25.75;;;;;10.46;64.61;102749.19;5103428;27;45456;-70
2021/11/18 08:47:27;;;;;;;;;29.25;29.00;;;;;10.54;64.68;102772.31;5088636;27;45554;-70
2021/11/18 08:49:52;;;;;;;;;27.75;24.25;;;;;10.43;64.57;102755.41;5097270;27;47356;-70
2021/11/18 08:52:23;;;;;;;;;31.50;30.25;;;;;10.47;65.05;102767.84;5102782;27;45443;-70
2021/11/18 08:54:52;;;;;;;;;34.75;29.00;;;;;10.46;65.09;102782.13;5103048;27;45290;-70
2021/11/18 08:57:18;;;;;;;;;44.50;38.25;;;;;10.40;64.57;102771.41;5102632;27;45435;-72
2021/11/18 08:59:43;;;;;;;;;36.75;33.75;;;;;10.42;64.84;102772.28;5102440;27;45199;-66
2021/11/18 09:02:15;;;;;;;;;38.25;34.25;;;;;10.30;65.59;102757.13;5102122;27;45385;-66
2021/11/18 09:04:41;;;;;;;;;35.50;33.75;;;;;10.45;65.15;102769.63;5100607;27;45476;-66
2021/11/18 09:07:06;;;;;;;;;34.25;28.00;;;;;10.46;65.47;102765.22;5102148;27;45561;-66
2021/11/18 09:09:32;;;;;;;;;33.75;32.25;;;;;10.43;65.25;102755.41;5102544;27;46114;-70
2021/11/18 09:12:03;;;;;;;;;36.50;30.00;;;;;10.49;65.38;102755.41;5102317;27;45450;-70
2021/11/18 09:14:30;;;;;;;;;40.75;35.00;;;;;10.57;65.72;102774.09;5102440;27;45392;-70
2021/11/18 09:16:55;;;;;;;;;40.75;34.00;;;;;10.61;65.54;102767.88;5102369;27;45219;-70
2021/11/18 09:19:28;;;;;;;;;37.25;34.50;;;;;10.67;65.33;102773.19;5102246;27;46286;-70
2021/11/18 09:21:57;;;;;;;;;34.75;34.00;;;;;10.68;65.67;102772.31;5091064;27;45792;-69
2021/11/18 09:24:38;;;;;;;;;43.00;37.00;;;;;10.68;65.14;102768.75;5102365;27;45370;-70
2021/11/18 09:27:09;;;;;;;;;42.75;36.75;;;;;10.71;65.54;102763.44;5102281;27;45377;-70
2021/11/18 09:29:34;;;;;;;;;39.25;36.25;;;;;10.64;65.16;102753.63;5100820;27;46399;-69
2021/11/18 09:32:00;;;;;;;;;44.75;37.50;;;;;10.80;65.48;102774.09;5102164;27;45260;-69
2021/11/18 09:34:27;;;;;;;;;45.00;37.25;;;;;10.69;65.66;102752.75;5101935;27;45376;-69
2021/11/18 09:36:54;;;;;;;;;40.00;37.25;;;;;10.86;65.77;102782.09;5101418;27;45473;-69
2021/11/18 09:39:20;;;;;;;;;45.00;36.75;;;;;10.88;65.75;102772.28;5101478;27;45481;-69
2021/11/18 09:42:03;;;;;;;;;49.25;40.00;;;;;10.95;65.56;102783.88;5101448;27;45344;-69
2021/11/18 09:44:31;;;;;;;;;50.00;40.00;;;;;10.97;65.51;102787.41;5100586;27;45258;-69
2021/11/18 09:47:35;;;;;;;;;48.75;40.50;;;;;10.98;66.03;102781.19;5088657;27;45440;-69
2021/11/18 09:50:17;;;;;;;;;44.25;37.50;;;;;11.09;65.92;102770.47;5093587;27;46364;-70
2021/11/18 09:53:20;;;;;;;;;52.75;38.50;;;;;11.13;65.29;102781.16;5101809;27;45373;-69
2021/11/18 09:56:02;;;;;;;;;52.00;42.00;;;;;11.13;65.36;102783.84;5101475;27;45393;-75
2021/11/18 09:58:54;;;;;;;;;47.00;39.50;;;;;11.19;65.08;102777.56;5101672;27;45299;-70
2021/11/18 10:02:17;;;;;;;;;51.00;40.00;;;;;11.24;65.08;102788.25;5101711;27;45316;-69
2021/11/18 10:04:58;;;;;;;;;50.50;41.00;;;;;11.28;65.04;102785.59;5095800;27;45295;-70
2021/11/18 10:07:23;;;;;;;;;42.00;37.00;;;;;11.34;65.19;102782.00;5094996;27;45282;-70
2021/11/18 10:09:59;;;;;;;;;50.50;40.25;;;;;11.25;65.25;102766.88;5101175;27;45489;-69
2021/11/18 10:12:53;;;;;;;;;48.50;38.50;;;;;11.41;65.12;102790.88;5100781;27;46883;-70
2021/11/18 10:15:22;;;;;;;;;51.50;40.50;;;;;11.45;65.17;102795.34;5098208;27;45686;-69
2021/11/18 10:17:53;;;;;;;;;50.25;40.25;;;;;11.48;65.17;102793.53;5101320;27;45387;-69
2021/11/18 10:20:23;;;;;;;;;47.50;40.25;;;;;11.45;64.60;102785.53;5097508;27;45303;-69
2021/11/18 10:22:56;;;;;;;;;49.75;40.50;;;;;11.58;64.80;102806.91;5095362;27;46364;-69
2021/11/18 10:25:27;;;;;;;;;46.00;38.00;;;;;11.58;64.61;102797.09;5099585;27;45387;-70
2021/11/18 10:28:17;;;;;;;;;42.50;37.00;;;;;11.62;65.03;102803.31;5101287;27;45365;-69
2021/11/18 10:30:53;;;;;;;;;40.75;35.25;;;;;11.67;64.88;102801.50;5097693;27;45384;-70
2021/11/18 10:33:26;;;;;;;;;44.00;37.50;;;;;11.65;64.93;102793.47;5088613;27;47128;-70
2021/11/18 10:36:04;;;;;;;;;30.00;27.75;;;;;11.66;64.39;102791.69;5098806;27;45353;-70
2021/11/18 10:38:33;;;;;;;;;33.00;32.00;;;;;11.81;64.88;102804.09;5090789;27;45773;-70
2021/11/18 10:41:10;;;;;;;;;32.25;30.50;;;;;11.84;64.79;102813.03;5099172;27;45340;-70
2021/11/18 10:43:38;;;;;;;;;32.50;28.25;;;;;11.87;64.75;102802.28;5099677;27;45965;-70
2021/11/18 10:46:24;;;;;;;;;39.25;32.50;;;;;11.92;64.44;102812.13;5095567;27;45344;-69
2021/11/18 10:49:07;;;;;;;;;32.00;29.75;;;;;11.98;64.73;102813.00;5090018;27;45451;-74
2021/11/18 10:51:36;;;;;;;;;27.25;26.25;;;;;11.97;64.69;102803.16;5099617;27;45387;-74
2021/11/18 10:54:06;;;;;;;;;25.75;24.25;;;;;12.00;64.66;102794.25;5098445;27;47151;-70
2021/11/18 10:56:40;;;;;;;;;39.25;31.00;;;;;12.07;64.45;102812.03;5098458;27;45513;-70
2021/11/18 10:59:14;;;;;;;;;25.25;25.00;;;;;12.10;64.44;102809.34;5098481;27;46704;-70
2021/11/18 11:01:43;;;;;;;;;27.75;26.50;;;;;12.07;64.50;102789.75;5098705;27;45770;-70
2021/11/18 11:04:30;;;;;;;;;31.25;27.25;;;;;12.14;64.33;102792.38;5087083;27;46012;-70
2021/11/18 11:06:56;;;;;;;;;27.75;27.25;;;;;12.14;64.27;102786.13;5100404;27;45317;-70
2021/11/18 11:09:31;;;;;;;;;26.75;24.00;;;;;12.25;64.30;102805.69;5100997;27;45373;-70
2021/11/18 11:12:16;;;;;;;;;32.75;30.75;;;;;12.27;64.30;102803.91;5097578;27;45358;-70
2021/11/18 11:14:44;;;;;;;;;36.50;33.00;;;;;12.30;64.23;102801.19;5098301;27;46998;-70
2021/11/18 11:17:25;;;;;;;;;52.00;41.25;;;;;12.33;63.77;102802.94;5100496;27;45673;-70